Belford Roxo, Brazil
Current Conditions -  °F | °C
As of 12:00 AM on Saturday 29 Nov 2014 (Local Time) from SBAF Reporting Station
Light Rain Light Rain  
Wind Chill: 72°   Ceiling: 1200
Heat Index: 72°   Visibility: 3mi
Dew Point: 68°   Wind: 2mph
Humidity: 88%   Direction: 60°ENE
Pressure: 30.06"   Gusts: NA
Location:  22.75°S, 43.42°W
Report Text: SBAF 290200Z 06002KT 5000 -RA FEW004 BKN012 BKN040 22/20 Q1018
Loading
Personal Weather Stations






























Interactive Weather Map New forecast layout! Learn more

10-Day Weather Forecast

Advertisements
Track Severe Weather on mobile